sensor_id;sensor_type;location;lat;lon;timestamp;temperature;humidity
80218;DHT22;70450;37.974;23.708;2024-03-23T00:54:53;6.90;58.00
80218;DHT22;70450;37.974;23.708;2024-03-23T00:57:21;6.80;58.20
80218;DHT22;70450;37.974;23.708;2024-03-23T00:59:47;6.80;58.10
80218;DHT22;70450;37.974;23.708;2024-03-23T01:02:13;6.80;58.20
80218;DHT22;70450;37.974;23.708;2024-03-23T01:04:40;7.10;57.50
80218;DHT22;70450;37.974;23.708;2024-03-23T01:07:06;7.30;56.90
80218;DHT22;70450;37.974;23.708;2024-03-23T01:09:32;7.50;56.20
80218;DHT22;70450;37.974;23.708;2024-03-23T01:11:58;7.30;56.90
80218;DHT22;70450;37.974;23.708;2024-03-23T01:14:24;7.10;57.70
80218;DHT22;70450;37.974;23.708;2024-03-23T01:16:50;7.10;57.70
80218;DHT22;70450;37.974;23.708;2024-03-23T01:19:17;7.30;57.30
80218;DHT22;70450;37.974;23.708;2024-03-23T01:21:43;7.50;55.80
80218;DHT22;70450;37.974;23.708;2024-03-23T01:24:09;7.70;55.10
80218;DHT22;70450;37.974;23.708;2024-03-23T01:26:36;7.70;54.70
80218;DHT22;70450;37.974;23.708;2024-03-23T01:29:03;7.80;54.60
80218;DHT22;70450;37.974;23.708;2024-03-23T01:31:29;7.90;54.30
80218;DHT22;70450;37.974;23.708;2024-03-23T01:33:55;7.90;54.00
80218;DHT22;70450;37.974;23.708;2024-03-23T01:36:21;7.80;53.80
80218;DHT22;70450;37.974;23.708;2024-03-23T01:38:47;7.80;53.90
80218;DHT22;70450;37.974;23.708;2024-03-23T01:41:14;7.60;54.00
80218;DHT22;70450;37.974;23.708;2024-03-23T01:43:40;7.50;54.30
80218;DHT22;70450;37.974;23.708;2024-03-23T01:46:07;7.40;54.40
80218;DHT22;70450;37.974;23.708;2024-03-23T01:48:33;7.40;54.60
80218;DHT22;70450;37.974;23.708;2024-03-23T01:50:59;7.30;55.90
80218;DHT22;70450;37.974;23.708;2024-03-23T01:53:25;7.30;55.40
80218;DHT22;70450;37.974;23.708;2024-03-23T01:55:52;7.30;55.80
80218;DHT22;70450;37.974;23.708;2024-03-23T01:58:18;7.20;56.00
80218;DHT22;70450;37.974;23.708;2024-03-23T02:00:47;7.20;56.10
80218;DHT22;70450;37.974;23.708;2024-03-23T02:03:26;7.20;55.80
80218;DHT22;70450;37.974;23.708;2024-03-23T02:05:56;7.10;56.00
80218;DHT22;70450;37.974;23.708;2024-03-23T02:08:23;7.10;56.00
80218;DHT22;70450;37.974;23.708;2024-03-23T02:10:50;7.10;56.00
80218;DHT22;70450;37.974;23.708;2024-03-23T02:13:18;7.10;56.10
80218;DHT22;70450;37.974;23.708;2024-03-23T02:15:45;7.10;56.00
80218;DHT22;70450;37.974;23.708;2024-03-23T02:18:11;7.10;55.90
80218;DHT22;70450;37.974;23.708;2024-03-23T02:20:38;7.00;56.00
80218;DHT22;70450;37.974;23.708;2024-03-23T02:23:05;7.00;56.00
80218;DHT22;70450;37.974;23.708;2024-03-23T02:25:34;7.00;56.10
80218;DHT22;70450;37.974;23.708;2024-03-23T02:28:03;7.00;56.10
80218;DHT22;70450;37.974;23.708;2024-03-23T02:30:29;6.90;56.20
80218;DHT22;70450;37.974;23.708;2024-03-23T02:32:55;6.90;56.50
80218;DHT22;70450;37.974;23.708;2024-03-23T02:35:21;6.90;56.70
80218;DHT22;70450;37.974;23.708;2024-03-23T02:37:48;6.80;56.60
80218;DHT22;70450;37.974;23.708;2024-03-23T02:40:15;6.80;56.70
80218;DHT22;70450;37.974;23.708;2024-03-23T02:42:42;6.80;56.60
80218;DHT22;70450;37.974;23.708;2024-03-23T02:45:08;6.80;56.80
80218;DHT22;70450;37.974;23.708;2024-03-23T02:47:34;6.70;56.90
80218;DHT22;70450;37.974;23.708;2024-03-23T02:50:01;6.70;56.90
80218;DHT22;70450;37.974;23.708;2024-03-23T02:52:27;6.70;57.30
80218;DHT22;70450;37.974;23.708;2024-03-23T02:54:53;6.80;56.90
80218;DHT22;70450;37.974;23.708;2024-03-23T02:57:20;6.70;56.70
80218;DHT22;70450;37.974;23.708;2024-03-23T02:59:46;6.70;57.10
80218;DHT22;70450;37.974;23.708;2024-03-23T03:02:13;6.60;57.50
80218;DHT22;70450;37.974;23.708;2024-03-23T03:04:39;6.40;57.90
80218;DHT22;70450;37.974;23.708;2024-03-23T03:07:06;6.20;58.90
80218;DHT22;70450;37.974;23.708;2024-03-23T03:09:33;6.10;59.30
80218;DHT22;70450;37.974;23.708;2024-03-23T03:12:07;6.10;59.30
80218;DHT22;70450;37.974;23.708;2024-03-23T03:14:33;6.20;59.20
80218;DHT22;70450;37.974;23.708;2024-03-23T03:17:00;6.10;59.80
80218;DHT22;70450;37.974;23.708;2024-03-23T03:19:29;5.90;60.20
80218;DHT22;70450;37.974;23.708;2024-03-23T03:21:56;6.20;59.60
80218;DHT22;70450;37.974;23.708;2024-03-23T03:24:22;6.10;59.10
80218;DHT22;70450;37.974;23.708;2024-03-23T03:26:50;6.00;59.50
80218;DHT22;70450;37.974;23.708;2024-03-23T03:29:16;6.10;59.30
80218;DHT22;70450;37.974;23.708;2024-03-23T03:31:43;6.20;59.20
80218;DHT22;70450;37.974;23.708;2024-03-23T03:34:10;6.10;59.10
80218;DHT22;70450;37.974;23.708;2024-03-23T03:36:36;6.20;58.40
80218;DHT22;70450;37.974;23.708;2024-03-23T03:39:04;6.20;58.50
80218;DHT22;70450;37.974;23.708;2024-03-23T03:41:32;6.30;58.10
80218;DHT22;70450;37.974;23.708;2024-03-23T03:43:58;6.30;58.10
80218;DHT22;70450;37.974;23.708;2024-03-23T03:46:30;6.20;58.40
80218;DHT22;70450;37.974;23.708;2024-03-23T03:48:57;6.30;57.90
80218;DHT22;70450;37.974;23.708;2024-03-23T03:51:25;5.90;58.50
80218;DHT22;70450;37.974;23.708;2024-03-23T03:53:51;5.60;59.70
80218;DHT22;70450;37.974;23.708;2024-03-23T03:56:17;5.30;60.70
80218;DHT22;70450;37.974;23.708;2024-03-23T03:58:44;5.00;61.60
80218;DHT22;70450;37.974;23.708;2024-03-23T04:01:10;5.10;61.70
80218;DHT22;70450;37.974;23.708;2024-03-23T04:03:41;5.20;61.10
80218;DHT22;70450;37.974;23.708;2024-03-23T04:06:10;5.20;60.90
80218;DHT22;70450;37.974;23.708;2024-03-23T04:08:36;5.40;59.30
80218;DHT22;70450;37.974;23.708;2024-03-23T04:11:04;5.50;59.50
80218;DHT22;70450;37.974;23.708;2024-03-23T04:13:31;5.50;59.60
80218;DHT22;70450;37.974;23.708;2024-03-23T04:15:59;5.80;58.60
80218;DHT22;70450;37.974;23.708;2024-03-23T04:18:26;5.40;59.10
80218;DHT22;70450;37.974;23.708;2024-03-23T04:20:52;5.50;58.90
80218;DHT22;70450;37.974;23.708;2024-03-23T04:23:18;5.50;59.00
80218;DHT22;70450;37.974;23.708;2024-03-23T04:25:44;5.50;58.80
80218;DHT22;70450;37.974;23.708;2024-03-23T04:28:10;5.20;59.80
80218;DHT22;70450;37.974;23.708;2024-03-23T04:30:36;5.10;60.00
80218;DHT22;70450;37.974;23.708;2024-03-23T04:33:03;4.90;60.80
80218;DHT22;70450;37.974;23.708;2024-03-23T04:35:32;5.00;60.70
80218;DHT22;70450;37.974;23.708;2024-03-23T04:37:58;5.30;59.70
80218;DHT22;70450;37.974;23.708;2024-03-23T04:40:25;5.20;59.70
80218;DHT22;70450;37.974;23.708;2024-03-23T04:42:51;5.40;59.20
80218;DHT22;70450;37.974;23.708;2024-03-23T04:45:18;5.10;59.70
80218;DHT22;70450;37.974;23.708;2024-03-23T04:47:44;5.00;60.20
80218;DHT22;70450;37.974;23.708;2024-03-23T04:50:12;4.90;60.30
80218;DHT22;70450;37.974;23.708;2024-03-23T04:52:38;5.10;60.10
80218;DHT22;70450;37.974;23.708;2024-03-23T04:55:05;5.20;59.40
80218;DHT22;70450;37.974;23.708;2024-03-23T04:57:31;5.00;59.90
80218;DHT22;70450;37.974;23.708;2024-03-23T04:59:58;5.00;59.80
80218;DHT22;70450;37.974;23.708;2024-03-23T05:02:24;5.00;60.00
80218;DHT22;70450;37.974;23.708;2024-03-23T05:04:53;4.90;60.50
80218;DHT22;70450;37.974;23.708;2024-03-23T05:07:19;4.70;61.40
80218;DHT22;70450;37.974;23.708;2024-03-23T05:09:45;4.50;61.90
80218;DHT22;70450;37.974;23.708;2024-03-23T05:12:12;4.60;61.70
80218;DHT22;70450;37.974;23.708;2024-03-23T05:14:38;4.50;61.70
80218;DHT22;70450;37.974;23.708;2024-03-23T05:17:04;4.60;61.80
80218;DHT22;70450;37.974;23.708;2024-03-23T05:19:30;4.60;61.80
80218;DHT22;70450;37.974;23.708;2024-03-23T05:21:56;4.60;61.70
80218;DHT22;70450;37.974;23.708;2024-03-23T05:24:22;4.90;61.30
80218;DHT22;70450;37.974;23.708;2024-03-23T05:26:48;5.00;60.90
80218;DHT22;70450;37.974;23.708;2024-03-23T05:29:15;5.20;60.30
80218;DHT22;70450;37.974;23.708;2024-03-23T05:31:43;5.40;59.60
80218;DHT22;70450;37.974;23.708;2024-03-23T05:34:09;5.60;59.00
80218;DHT22;70450;37.974;23.708;2024-03-23T05:36:35;5.90;57.90
80218;DHT22;70450;37.974;23.708;2024-03-23T05:39:03;5.70;57.10
80218;DHT22;70450;37.974;23.708;2024-03-23T05:41:29;5.60;57.70
80218;DHT22;70450;37.974;23.708;2024-03-23T05:43:55;5.70;57.20
80218;DHT22;70450;37.974;23.708;2024-03-23T05:46:22;5.70;57.60
80218;DHT22;70450;37.974;23.708;2024-03-23T05:48:48;5.70;57.30
80218;DHT22;70450;37.974;23.708;2024-03-23T05:51:14;5.70;57.80
80218;DHT22;70450;37.974;23.708;2024-03-23T05:53:41;6.00;57.00
80218;DHT22;70450;37.974;23.708;2024-03-23T05:56:08;6.10;56.30
80218;DHT22;70450;37.974;23.708;2024-03-23T05:58:36;6.00;56.70
80218;DHT22;70450;37.974;23.708;2024-03-23T06:01:02;6.10;56.50
80218;DHT22;70450;37.974;23.708;2024-03-23T06:03:31;6.40;56.10
80218;DHT22;70450;37.974;23.708;2024-03-23T06:05:58;6.50;55.20
80218;DHT22;70450;37.974;23.708;2024-03-23T06:08:24;6.60;55.20
80218;DHT22;70450;37.974;23.708;2024-03-23T06:10:50;6.50;55.00
80218;DHT22;70450;37.974;23.708;2024-03-23T06:13:17;6.70;54.90
80218;DHT22;70450;37.974;23.708;2024-03-23T06:15:46;6.80;54.20
80218;DHT22;70450;37.974;23.708;2024-03-23T06:18:12;7.10;53.90
80218;DHT22;70450;37.974;23.708;2024-03-23T06:20:38;7.30;53.10
80218;DHT22;70450;37.974;23.708;2024-03-23T06:23:05;7.50;52.70
80218;DHT22;70450;37.974;23.708;2024-03-23T06:25:31;7.40;52.40
80218;DHT22;70450;37.974;23.708;2024-03-23T06:27:57;7.50;52.40
80218;DHT22;70450;37.974;23.708;2024-03-23T06:30:28;7.40;52.90
80218;DHT22;70450;37.974;23.708;2024-03-23T06:32:57;7.50;52.50
80218;DHT22;70450;37.974;23.708;2024-03-23T06:35:23;7.40;52.90
80218;DHT22;70450;37.974;23.708;2024-03-23T06:37:50;7.20;53.20
80218;DHT22;70450;37.974;23.708;2024-03-23T06:40:16;7.00;54.00
80218;DHT22;70450;37.974;23.708;2024-03-23T06:42:42;6.90;54.30
80218;DHT22;70450;37.974;23.708;2024-03-23T06:45:10;7.10;54.20
80218;DHT22;70450;37.974;23.708;2024-03-23T06:47:36;7.50;53.40
80218;DHT22;70450;37.974;23.708;2024-03-23T06:50:03;7.80;52.40
80218;DHT22;70450;37.974;23.708;2024-03-23T06:52:30;8.20;51.30
80218;DHT22;70450;37.974;23.708;2024-03-23T06:54:59;8.30;50.40
80218;DHT22;70450;37.974;23.708;2024-03-23T06:57:25;8.40;50.40
80218;DHT22;70450;37.974;23.708;2024-03-23T06:59:51;8.70;49.70
80218;DHT22;70450;37.974;23.708;2024-03-23T07:02:18;8.70;49.40
80218;DHT22;70450;37.974;23.708;2024-03-23T07:04:44;9.00;48.80
80218;DHT22;70450;37.974;23.708;2024-03-23T07:07:12;9.20;48.30
80218;DHT22;70450;37.974;23.708;2024-03-23T07:09:39;9.30;47.80
80218;DHT22;70450;37.974;23.708;2024-03-23T07:12:05;9.50;47.40
80218;DHT22;70450;37.974;23.708;2024-03-23T07:14:31;9.50;47.20
80218;DHT22;70450;37.974;23.708;2024-03-23T07:17:00;9.60;47.00
80218;DHT22;70450;37.974;23.708;2024-03-23T07:19:29;9.80;46.70
80218;DHT22;70450;37.974;23.708;2024-03-23T07:21:55;9.90;46.10
80218;DHT22;70450;37.974;23.708;2024-03-23T07:24:21;9.80;45.80
80218;DHT22;70450;37.974;23.708;2024-03-23T07:26:47;9.90;46.30
80218;DHT22;70450;37.974;23.708;2024-03-23T07:29:13;10.00;45.90
80218;DHT22;70450;37.974;23.708;2024-03-23T07:31:40;10.10;45.50
80218;DHT22;70450;37.974;23.708;2024-03-23T07:34:07;10.20;45.40
80218;DHT22;70450;37.974;23.708;2024-03-23T07:36:33;10.30;45.10
80218;DHT22;70450;37.974;23.708;2024-03-23T07:39:00;10.40;44.40
80218;DHT22;70450;37.974;23.708;2024-03-23T07:41:26;10.40;44.50
80218;DHT22;70450;37.974;23.708;2024-03-23T07:43:54;10.10;44.50
80218;DHT22;70450;37.974;23.708;2024-03-23T07:46:20;10.20;45.20
80218;DHT22;70450;37.974;23.708;2024-03-23T07:48:46;10.10;44.80
80218;DHT22;70450;37.974;23.708;2024-03-23T07:51:17;10.00;45.00
80218;DHT22;70450;37.974;23.708;2024-03-23T07:53:45;10.10;44.60
80218;DHT22;70450;37.974;23.708;2024-03-23T07:56:12;10.30;44.40
80218;DHT22;70450;37.974;23.708;2024-03-23T07:58:41;10.20;44.80
80218;DHT22;70450;37.974;23.708;2024-03-23T08:01:17;10.50;44.00
80218;DHT22;70450;37.974;23.708;2024-03-23T08:03:44;10.20;44.00
80218;DHT22;70450;37.974;23.708;2024-03-23T08:08:42;10.60;44.50
80218;DHT22;70450;37.974;23.708;2024-03-23T08:11:09;10.80;44.10
80218;DHT22;70450;37.974;23.708;2024-03-23T08:13:38;11.00;43.40
80218;DHT22;70450;37.974;23.708;2024-03-23T08:16:04;11.30;42.80
80218;DHT22;70450;37.974;23.708;2024-03-23T08:18:31;11.40;42.70
80218;DHT22;70450;37.974;23.708;2024-03-23T08:21:02;11.60;42.30
80218;DHT22;70450;37.974;23.708;2024-03-23T08:23:29;11.90;41.30
80218;DHT22;70450;37.974;23.708;2024-03-23T08:26:00;12.00;41.20
80218;DHT22;70450;37.974;23.708;2024-03-23T08:28:27;12.20;40.60
80218;DHT22;70450;37.974;23.708;2024-03-23T08:30:55;12.40;40.00
80218;DHT22;70450;37.974;23.708;2024-03-23T08:33:22;12.50;40.00
80218;DHT22;70450;37.974;23.708;2024-03-23T08:35:56;12.60;39.70
80218;DHT22;70450;37.974;23.708;2024-03-23T08:38:23;12.90;38.60
80218;DHT22;70450;37.974;23.708;2024-03-23T08:41:03;13.00;38.30
80218;DHT22;70450;37.974;23.708;2024-03-23T08:43:33;13.10;38.40
80218;DHT22;70450;37.974;23.708;2024-03-23T08:46:10;13.10;38.30
80218;DHT22;70450;37.974;23.708;2024-03-23T08:48:46;13.30;37.70
80218;DHT22;70450;37.974;23.708;2024-03-23T08:51:16;13.40;37.20
80218;DHT22;70450;37.974;23.708;2024-03-23T08:53:42;13.60;36.60
80218;DHT22;70450;37.974;23.708;2024-03-23T08:56:11;13.70;36.50
80218;DHT22;70450;37.974;23.708;2024-03-23T08:58:38;13.60;36.80
80218;DHT22;70450;37.974;23.708;2024-03-23T09:01:12;13.60;36.30
80218;DHT22;70450;37.974;23.708;2024-03-23T09:03:41;13.30;36.70
80218;DHT22;70450;37.974;23.708;2024-03-23T09:06:12;13.30;36.90
80218;DHT22;70450;37.974;23.708;2024-03-23T09:08:38;13.50;37.30
80218;DHT22;70450;37.974;23.708;2024-03-23T09:11:07;13.70;37.30
80218;DHT22;70450;37.974;23.708;2024-03-23T09:13:35;14.10;36.40
80218;DHT22;70450;37.974;23.708;2024-03-23T09:16:01;14.40;34.40
80218;DHT22;70450;37.974;23.708;2024-03-23T09:18:33;14.40;34.80
80218;DHT22;70450;37.974;23.708;2024-03-23T09:21:01;14.50;34.50
80218;DHT22;70450;37.974;23.708;2024-03-23T09:23:28;14.60;34.60
80218;DHT22;70450;37.974;23.708;2024-03-23T09:25:56;14.80;34.30
80218;DHT22;70450;37.974;23.708;2024-03-23T09:28:22;15.00;33.90
80218;DHT22;70450;37.974;23.708;2024-03-23T09:30:49;15.10;33.00
80218;DHT22;70450;37.974;23.708;2024-03-23T09:33:15;15.10;33.10
80218;DHT22;70450;37.974;23.708;2024-03-23T09:35:42;15.20;34.00
80218;DHT22;70450;37.974;23.708;2024-03-23T09:38:13;14.90;34.10
80218;DHT22;70450;37.974;23.708;2024-03-23T09:40:42;15.00;34.30
80218;DHT22;70450;37.974;23.708;2024-03-23T09:43:09;15.10;34.20
80218;DHT22;70450;37.974;23.708;2024-03-23T09:45:39;15.30;33.20
80218;DHT22;70450;37.974;23.708;2024-03-23T09:48:08;15.40;33.60
80218;DHT22;70450;37.974;23.708;2024-03-23T09:50:39;15.60;33.70
80218;DHT22;70450;37.974;23.708;2024-03-23T09:53:10;15.80;33.20
80218;DHT22;70450;37.974;23.708;2024-03-23T09:55:41;15.80;33.30
80218;DHT22;70450;37.974;23.708;2024-03-23T09:58:08;15.80;34.10
80218;DHT22;70450;37.974;23.708;2024-03-23T10:00:38;16.00;33.40
80218;DHT22;70450;37.974;23.708;2024-03-23T10:03:04;16.20;33.30
80218;DHT22;70450;37.974;23.708;2024-03-23T10:05:33;16.20;33.70
80218;DHT22;70450;37.974;23.708;2024-03-23T10:10:44;16.30;34.10
80218;DHT22;70450;37.974;23.708;2024-03-23T10:13:11;16.50;32.90
80218;DHT22;70450;37.974;23.708;2024-03-23T10:15:40;16.60;33.00
80218;DHT22;70450;37.974;23.708;2024-03-23T10:18:19;16.70;32.30
80218;DHT22;70450;37.974;23.708;2024-03-23T10:20:54;16.70;31.80
80218;DHT22;70450;37.974;23.708;2024-03-23T10:23:35;16.80;31.70
80218;DHT22;70450;37.974;23.708;2024-03-23T10:29:00;17.00;32.50
80218;DHT22;70450;37.974;23.708;2024-03-23T10:31:33;17.10;32.40
80218;DHT22;70450;37.974;23.708;2024-03-23T10:33:59;17.10;31.80
80218;DHT22;70450;37.974;23.708;2024-03-23T10:36:26;17.10;31.30
80218;DHT22;70450;37.974;23.708;2024-03-23T10:38:54;17.10;31.80
80218;DHT22;70450;37.974;23.708;2024-03-23T10:41:20;17.30;31.60
80218;DHT22;70450;37.974;23.708;2024-03-23T10:43:48;17.50;31.00
80218;DHT22;70450;37.974;23.708;2024-03-23T10:46:15;17.50;30.40
80218;DHT22;70450;37.974;23.708;2024-03-23T10:48:43;17.10;30.60
80218;DHT22;70450;37.974;23.708;2024-03-23T10:51:10;17.00;30.80
80218;DHT22;70450;37.974;23.708;2024-03-23T10:53:37;17.30;30.00
80218;DHT22;70450;37.974;23.708;2024-03-23T10:56:04;17.90;30.60
80218;DHT22;70450;37.974;23.708;2024-03-23T10:58:39;20.40;28.00
80218;DHT22;70450;37.974;23.708;2024-03-23T11:01:06;24.20;24.40
80218;DHT22;70450;37.974;23.708;2024-03-23T11:03:34;27.60;21.00
80218;DHT22;70450;37.974;23.708;2024-03-23T11:06:07;29.80;19.30
80218;DHT22;70450;37.974;23.708;2024-03-23T11:08:40;32.00;18.30
80218;DHT22;70450;37.974;23.708;2024-03-23T11:11:24;32.90;17.30
80218;DHT22;70450;37.974;23.708;2024-03-23T11:13:52;34.40;16.60
80218;DHT22;70450;37.974;23.708;2024-03-23T11:16:26;36.20;16.00
80218;DHT22;70450;37.974;23.708;2024-03-23T11:19:38;36.90;15.30
80218;DHT22;70450;37.974;23.708;2024-03-23T11:22:05;38.20;14.50
80218;DHT22;70450;37.974;23.708;2024-03-23T11:24:32;38.90;14.10
80218;DHT22;70450;37.974;23.708;2024-03-23T11:26:59;39.70;13.60
80218;DHT22;70450;37.974;23.708;2024-03-23T11:29:27;40.10;13.40
80218;DHT22;70450;37.974;23.708;2024-03-23T11:31:55;41.00;13.40
80218;DHT22;70450;37.974;23.708;2024-03-23T11:34:22;38.80;13.00
80218;DHT22;70450;37.974;23.708;2024-03-23T11:36:48;36.80;14.00
80218;DHT22;70450;37.974;23.708;2024-03-23T11:39:17;38.00;13.80
80218;DHT22;70450;37.974;23.708;2024-03-23T11:44:21;38.70;13.50
80218;DHT22;70450;37.974;23.708;2024-03-23T11:46:49;39.10;13.20
80218;DHT22;70450;37.974;23.708;2024-03-23T11:49:26;39.80;13.10
80218;DHT22;70450;37.974;23.708;2024-03-23T11:51:54;40.70;13.10
80218;DHT22;70450;37.974;23.708;2024-03-23T11:54:25;41.60;12.70
80218;DHT22;70450;37.974;23.708;2024-03-23T11:59:41;42.20;12.10
80218;DHT22;70450;37.974;23.708;2024-03-23T12:02:08;42.60;12.20
80218;DHT22;70450;37.974;23.708;2024-03-23T12:04:36;42.50;12.00
80218;DHT22;70450;37.974;23.708;2024-03-23T12:07:19;42.90;11.90
80218;DHT22;70450;37.974;23.708;2024-03-23T12:10:06;42.70;12.00
80218;DHT22;70450;37.974;23.708;2024-03-23T12:12:33;42.40;12.10
80218;DHT22;70450;37.974;23.708;2024-03-23T12:15:07;41.80;12.00
80218;DHT22;70450;37.974;23.708;2024-03-23T12:17:34;41.50;12.20
80218;DHT22;70450;37.974;23.708;2024-03-23T12:20:01;41.20;13.40
80218;DHT22;70450;37.974;23.708;2024-03-23T12:22:27;41.30;12.30
80218;DHT22;70450;37.974;23.708;2024-03-23T12:24:55;40.60;12.20
80218;DHT22;70450;37.974;23.708;2024-03-23T12:27:23;40.70;12.40
80218;DHT22;70450;37.974;23.708;2024-03-23T12:29:49;41.80;12.20
80218;DHT22;70450;37.974;23.708;2024-03-23T12:32:16;42.50;12.10
80218;DHT22;70450;37.974;23.708;2024-03-23T12:34:42;42.80;12.00
80218;DHT22;70450;37.974;23.708;2024-03-23T12:37:08;42.60;11.80
80218;DHT22;70450;37.974;23.708;2024-03-23T12:39:35;42.80;11.60
80218;DHT22;70450;37.974;23.708;2024-03-23T12:42:02;42.50;11.70
80218;DHT22;70450;37.974;23.708;2024-03-23T12:44:31;43.40;11.90
80218;DHT22;70450;37.974;23.708;2024-03-23T12:46:57;44.30;11.60
80218;DHT22;70450;37.974;23.708;2024-03-23T12:49:24;44.60;11.50
80218;DHT22;70450;37.974;23.708;2024-03-23T12:51:56;43.60;11.00
80218;DHT22;70450;37.974;23.708;2024-03-23T12:54:23;41.20;11.90
80218;DHT22;70450;37.974;23.708;2024-03-23T12:56:51;41.40;11.90
80218;DHT22;70450;37.974;23.708;2024-03-23T12:59:18;42.60;11.50
80218;DHT22;70450;37.974;23.708;2024-03-23T13:01:45;41.70;11.00
80218;DHT22;70450;37.974;23.708;2024-03-23T13:04:11;40.90;11.80
80218;DHT22;70450;37.974;23.708;2024-03-23T13:06:38;41.70;11.50
80218;DHT22;70450;37.974;23.708;2024-03-23T13:09:04;42.20;11.50
80218;DHT22;70450;37.974;23.708;2024-03-23T13:11:31;42.30;11.60
80218;DHT22;70450;37.974;23.708;2024-03-23T13:13:57;41.90;11.10
80218;DHT22;70450;37.974;23.708;2024-03-23T13:16:24;41.90;11.60
80218;DHT22;70450;37.974;23.708;2024-03-23T13:18:50;41.80;11.20
80218;DHT22;70450;37.974;23.708;2024-03-23T13:21:16;41.80;11.10
80218;DHT22;70450;37.974;23.708;2024-03-23T13:23:46;42.10;11.20
80218;DHT22;70450;37.974;23.708;2024-03-23T13:26:14;42.60;12.00
80218;DHT22;70450;37.974;23.708;2024-03-23T13:28:40;42.80;11.00
80218;DHT22;70450;37.974;23.708;2024-03-23T13:31:07;43.00;11.10
80218;DHT22;70450;37.974;23.708;2024-03-23T13:33:34;43.00;10.80
80218;DHT22;70450;37.974;23.708;2024-03-23T13:36:00;42.70;11.00
80218;DHT22;70450;37.974;23.708;2024-03-23T13:38:28;42.60;11.00
80218;DHT22;70450;37.974;23.708;2024-03-23T13:40:59;42.20;11.30
80218;DHT22;70450;37.974;23.708;2024-03-23T13:43:26;41.70;11.50
80218;DHT22;70450;37.974;23.708;2024-03-23T13:45:59;41.50;11.70
80218;DHT22;70450;37.974;23.708;2024-03-23T13:48:26;41.80;11.60
80218;DHT22;70450;37.974;23.708;2024-03-23T13:51:03;41.60;11.20
80218;DHT22;70450;37.974;23.708;2024-03-23T13:53:30;41.30;11.10
80218;DHT22;70450;37.974;23.708;2024-03-23T13:55:56;41.00;11.40
80218;DHT22;70450;37.974;23.708;2024-03-23T13:58:23;40.80;11.40
80218;DHT22;70450;37.974;23.708;2024-03-23T14:00:52;40.60;11.50
80218;DHT22;70450;37.974;23.708;2024-03-23T14:03:18;40.20;11.30
80218;DHT22;70450;37.974;23.708;2024-03-23T14:05:45;39.90;11.50
80218;DHT22;70450;37.974;23.708;2024-03-23T14:08:13;39.60;11.80
80218;DHT22;70450;37.974;23.708;2024-03-23T14:10:42;39.60;11.80
80218;DHT22;70450;37.974;23.708;2024-03-23T14:13:09;39.80;11.80
80218;DHT22;70450;37.974;23.708;2024-03-23T14:15:35;39.70;11.50
80218;DHT22;70450;37.974;23.708;2024-03-23T14:18:05;39.60;11.80
80218;DHT22;70450;37.974;23.708;2024-03-23T14:20:31;39.50;11.90
80218;DHT22;70450;37.974;23.708;2024-03-23T14:22:57;39.30;11.90
80218;DHT22;70450;37.974;23.708;2024-03-23T14:25:24;39.20;11.90
80218;DHT22;70450;37.974;23.708;2024-03-23T14:27:53;39.20;12.20
80218;DHT22;70450;37.974;23.708;2024-03-23T14:30:19;38.20;12.60
80218;DHT22;70450;37.974;23.708;2024-03-23T14:32:45;37.20;13.00
80218;DHT22;70450;37.974;23.708;2024-03-23T14:35:12;36.40;13.50
80218;DHT22;70450;37.974;23.708;2024-03-23T14:37:38;36.10;13.70
80218;DHT22;70450;37.974;23.708;2024-03-23T14:40:05;36.10;13.70
80218;DHT22;70450;37.974;23.708;2024-03-23T14:42:31;36.30;13.90
80218;DHT22;70450;37.974;23.708;2024-03-23T14:45:01;36.30;13.50
80218;DHT22;70450;37.974;23.708;2024-03-23T14:47:27;36.20;13.40
80218;DHT22;70450;37.974;23.708;2024-03-23T14:49:53;35.40;13.30
80218;DHT22;70450;37.974;23.708;2024-03-23T14:52:24;34.40;13.70
80218;DHT22;70450;37.974;23.708;2024-03-23T14:54:51;33.80;13.80
80218;DHT22;70450;37.974;23.708;2024-03-23T14:57:17;33.30;13.70
80218;DHT22;70450;37.974;23.708;2024-03-23T14:59:45;33.20;13.70
80218;DHT22;70450;37.974;23.708;2024-03-23T15:02:11;32.70;13.60
80218;DHT22;70450;37.974;23.708;2024-03-23T15:04:38;32.00;13.80
80218;DHT22;70450;37.974;23.708;2024-03-23T15:07:07;30.80;14.60
80218;DHT22;70450;37.974;23.708;2024-03-23T15:09:34;29.90;14.20
80218;DHT22;70450;37.974;23.708;2024-03-23T15:12:00;28.90;15.00
80218;DHT22;70450;37.974;23.708;2024-03-23T15:14:26;28.00;15.80
80218;DHT22;70450;37.974;23.708;2024-03-23T15:16:52;27.10;16.90
80218;DHT22;70450;37.974;23.708;2024-03-23T15:19:20;26.40;17.50
80218;DHT22;70450;37.974;23.708;2024-03-23T15:21:46;25.90;18.10
80218;DHT22;70450;37.974;23.708;2024-03-23T15:24:12;25.60;18.60
80218;DHT22;70450;37.974;23.708;2024-03-23T15:26:39;25.80;18.60
80218;DHT22;70450;37.974;23.708;2024-03-23T15:29:05;25.90;18.50
80218;DHT22;70450;37.974;23.708;2024-03-23T15:31:37;26.20;18.40
80218;DHT22;70450;37.974;23.708;2024-03-23T15:34:04;26.50;18.30
80218;DHT22;70450;37.974;23.708;2024-03-23T15:36:31;27.00;18.70
80218;DHT22;70450;37.974;23.708;2024-03-23T15:38:57;27.40;17.70
80218;DHT22;70450;37.974;23.708;2024-03-23T15:41:24;27.30;17.40
80218;DHT22;70450;37.974;23.708;2024-03-23T15:43:51;26.60;17.30
80218;DHT22;70450;37.974;23.708;2024-03-23T15:46:17;26.00;17.80
80218;DHT22;70450;37.974;23.708;2024-03-23T15:48:45;26.10;18.10
80218;DHT22;70450;37.974;23.708;2024-03-23T15:51:12;26.50;17.70
80218;DHT22;70450;37.974;23.708;2024-03-23T15:53:39;26.90;17.20
80218;DHT22;70450;37.974;23.708;2024-03-23T15:56:06;26.70;17.00
80218;DHT22;70450;37.974;23.708;2024-03-23T15:58:33;26.00;17.20
80218;DHT22;70450;37.974;23.708;2024-03-23T16:01:04;25.20;17.60
80218;DHT22;70450;37.974;23.708;2024-03-23T16:03:31;24.50;18.00
80218;DHT22;70450;37.974;23.708;2024-03-23T16:06:08;23.80;18.50
80218;DHT22;70450;37.974;23.708;2024-03-23T16:08:35;23.20;19.20
80218;DHT22;70450;37.974;23.708;2024-03-23T16:11:03;22.60;19.80
80218;DHT22;70450;37.974;23.708;2024-03-23T16:13:33;22.00;20.50
80218;DHT22;70450;37.974;23.708;2024-03-23T16:18:27;21.10;22.00
80218;DHT22;70450;37.974;23.708;2024-03-23T16:20:57;20.70;22.50
80218;DHT22;70450;37.974;23.708;2024-03-23T16:23:24;20.40;23.00
80218;DHT22;70450;37.974;23.708;2024-03-23T16:25:52;20.10;23.40
80218;DHT22;70450;37.974;23.708;2024-03-23T16:28:25;19.90;24.00
80218;DHT22;70450;37.974;23.708;2024-03-23T16:33:22;19.30;24.80
80218;DHT22;70450;37.974;23.708;2024-03-23T16:36:02;19.20;25.10
80218;DHT22;70450;37.974;23.708;2024-03-23T16:38:31;19.00;25.30